sensor_id;sensor_type;location;lat;lon;timestamp;P1;durP1;ratioP1;P2;durP2;ratioP2
48241;SDS011;34041;51.812;4.622;2023-07-08T00:02:01;3.93;;;2.90;;
48241;SDS011;34041;51.812;4.622;2023-07-08T00:05:01;4.37;;;2.80;;
48241;SDS011;34041;51.812;4.622;2023-07-08T00:08:01;6.80;;;3.27;;
48241;SDS011;34041;51.812;4.622;2023-07-08T00:11:04;3.75;;;2.65;;
48241;SDS011;34041;51.812;4.622;2023-07-08T00:14:07;7.25;;;3.53;;
48241;SDS011;34041;51.812;4.622;2023-07-08T00:17:09;4.97;;;3.27;;
48241;SDS011;34041;51.812;4.622;2023-07-08T00:23:10;7.73;;;3.40;;
48241;SDS011;34041;51.812;4.622;2023-07-08T00:26:11;4.47;;;2.72;;
48241;SDS011;34041;51.812;4.622;2023-07-08T00:29:13;6.35;;;2.97;;
48241;SDS011;34041;51.812;4.622;2023-07-08T00:32:15;6.75;;;2.83;;
48241;SDS011;34041;51.812;4.622;2023-07-08T00:35:16;5.50;;;2.88;;
48241;SDS011;34041;51.812;4.622;2023-07-08T00:41:33;7.88;;;2.88;;
48241;SDS011;34041;51.812;4.622;2023-07-08T00:44:34;4.85;;;3.20;;
48241;SDS011;34041;51.812;4.622;2023-07-08T00:47:35;5.68;;;3.15;;
48241;SDS011;34041;51.812;4.622;2023-07-08T00:50:36;5.90;;;3.13;;
48241;SDS011;34041;51.812;4.622;2023-07-08T00:53:36;5.55;;;3.45;;
48241;SDS011;34041;51.812;4.622;2023-07-08T00:56:50;6.00;;;3.65;;
48241;SDS011;34041;51.812;4.622;2023-07-08T00:59:58;6.50;;;3.70;;
48241;SDS011;34041;51.812;4.622;2023-07-08T01:02:59;4.60;;;3.20;;
48241;SDS011;34041;51.812;4.622;2023-07-08T01:05:59;6.07;;;3.27;;
48241;SDS011;34041;51.812;4.622;2023-07-08T01:09:03;5.57;;;3.23;;
48241;SDS011;34041;51.812;4.622;2023-07-08T01:12:06;4.68;;;3.55;;
48241;SDS011;34041;51.812;4.622;2023-07-08T01:15:08;7.18;;;4.35;;
48241;SDS011;34041;51.812;4.622;2023-07-08T01:18:10;6.28;;;3.08;;
48241;SDS011;34041;51.812;4.622;2023-07-08T01:24:31;5.18;;;3.08;;
48241;SDS011;34041;51.812;4.622;2023-07-08T01:27:33;6.32;;;3.75;;
48241;SDS011;34041;51.812;4.622;2023-07-08T01:30:34;6.18;;;3.45;;
48241;SDS011;34041;51.812;4.622;2023-07-08T01:33:34;5.95;;;3.15;;
48241;SDS011;34041;51.812;4.622;2023-07-08T01:36:37;4.63;;;3.20;;
48241;SDS011;34041;51.812;4.622;2023-07-08T01:39:39;5.80;;;3.13;;
48241;SDS011;34041;51.812;4.622;2023-07-08T01:42:39;5.00;;;3.33;;
48241;SDS011;34041;51.812;4.622;2023-07-08T01:45:40;5.93;;;3.53;;
48241;SDS011;34041;51.812;4.622;2023-07-08T01:48:41;4.97;;;3.17;;
48241;SDS011;34041;51.812;4.622;2023-07-08T01:51:43;8.27;;;3.33;;
48241;SDS011;34041;51.812;4.622;2023-07-08T01:54:43;4.28;;;3.13;;
48241;SDS011;34041;51.812;4.622;2023-07-08T01:57:43;5.87;;;3.67;;
48241;SDS011;34041;51.812;4.622;2023-07-08T02:00:44;4.83;;;3.50;;
48241;SDS011;34041;51.812;4.622;2023-07-08T02:03:44;5.60;;;3.40;;
48241;SDS011;34041;51.812;4.622;2023-07-08T02:06:55;4.30;;;3.30;;
48241;SDS011;34041;51.812;4.622;2023-07-08T02:09:56;6.53;;;3.45;;
48241;SDS011;34041;51.812;4.622;2023-07-08T02:12:56;6.40;;;3.87;;
48241;SDS011;34041;51.812;4.622;2023-07-08T02:15:56;6.20;;;3.17;;
48241;SDS011;34041;51.812;4.622;2023-07-08T02:18:57;5.80;;;3.53;;
48241;SDS011;34041;51.812;4.622;2023-07-08T02:21:57;8.80;;;4.97;;
48241;SDS011;34041;51.812;4.622;2023-07-08T02:24:57;6.00;;;3.42;;
48241;SDS011;34041;51.812;4.622;2023-07-08T02:27:57;5.63;;;3.47;;
48241;SDS011;34041;51.812;4.622;2023-07-08T02:31:01;5.22;;;3.40;;
48241;SDS011;34041;51.812;4.622;2023-07-08T02:34:01;4.45;;;2.50;;
48241;SDS011;34041;51.812;4.622;2023-07-08T02:37:02;4.28;;;3.08;;
48241;SDS011;34041;51.812;4.622;2023-07-08T02:40:02;6.75;;;3.28;;
48241;SDS011;34041;51.812;4.622;2023-07-08T02:43:03;5.00;;;3.58;;
48241;SDS011;34041;51.812;4.622;2023-07-08T02:46:03;7.22;;;3.60;;
48241;SDS011;34041;51.812;4.622;2023-07-08T02:49:03;5.57;;;3.28;;
48241;SDS011;34041;51.812;4.622;2023-07-08T02:52:04;6.95;;;3.35;;
48241;SDS011;34041;51.812;4.622;2023-07-08T02:55:04;5.15;;;3.30;;
48241;SDS011;34041;51.812;4.622;2023-07-08T02:58:05;5.55;;;3.60;;
48241;SDS011;34041;51.812;4.622;2023-07-08T03:01:05;5.90;;;3.30;;
48241;SDS011;34041;51.812;4.622;2023-07-08T03:04:09;5.63;;;3.15;;
48241;SDS011;34041;51.812;4.622;2023-07-08T03:07:13;4.40;;;3.33;;
48241;SDS011;34041;51.812;4.622;2023-07-08T03:10:13;4.70;;;3.72;;
48241;SDS011;34041;51.812;4.622;2023-07-08T03:13:14;4.45;;;3.10;;
48241;SDS011;34041;51.812;4.622;2023-07-08T03:16:14;4.05;;;2.80;;
48241;SDS011;34041;51.812;4.622;2023-07-08T03:19:14;5.97;;;3.50;;
48241;SDS011;34041;51.812;4.622;2023-07-08T03:22:15;7.20;;;4.43;;
48241;SDS011;34041;51.812;4.622;2023-07-08T03:25:15;4.53;;;3.30;;
48241;SDS011;34041;51.812;4.622;2023-07-08T03:28:15;5.87;;;3.50;;
48241;SDS011;34041;51.812;4.622;2023-07-08T03:31:16;4.75;;;3.20;;
48241;SDS011;34041;51.812;4.622;2023-07-08T03:34:17;5.43;;;3.80;;
48241;SDS011;34041;51.812;4.622;2023-07-08T03:37:17;6.80;;;3.53;;
48241;SDS011;34041;51.812;4.622;2023-07-08T03:40:17;4.97;;;3.27;;
48241;SDS011;34041;51.812;4.622;2023-07-08T03:43:18;4.70;;;3.07;;
48241;SDS011;34041;51.812;4.622;2023-07-08T03:46:18;4.03;;;2.60;;
48241;SDS011;34041;51.812;4.622;2023-07-08T03:49:20;4.60;;;2.85;;
48241;SDS011;34041;51.812;4.622;2023-07-08T03:52:22;4.82;;;3.10;;
48241;SDS011;34041;51.812;4.622;2023-07-08T03:55:22;8.47;;;3.73;;
48241;SDS011;34041;51.812;4.622;2023-07-08T03:58:22;7.68;;;3.38;;
48241;SDS011;34041;51.812;4.622;2023-07-08T04:01:23;5.43;;;3.00;;
48241;SDS011;34041;51.812;4.622;2023-07-08T04:04:24;10.55;;;3.30;;
48241;SDS011;34041;51.812;4.622;2023-07-08T04:07:24;5.35;;;3.70;;
48241;SDS011;34041;51.812;4.622;2023-07-08T04:10:25;6.37;;;3.10;;
48241;SDS011;34041;51.812;4.622;2023-07-08T04:13:25;3.97;;;2.90;;
48241;SDS011;34041;51.812;4.622;2023-07-08T04:16:26;4.87;;;2.93;;
48241;SDS011;34041;51.812;4.622;2023-07-08T04:19:29;4.03;;;3.38;;
48241;SDS011;34041;51.812;4.622;2023-07-08T04:22:30;6.67;;;3.20;;
48241;SDS011;34041;51.812;4.622;2023-07-08T04:25:30;4.27;;;3.27;;
48241;SDS011;34041;51.812;4.622;2023-07-08T04:28:30;5.55;;;4.20;;
48241;SDS011;34041;51.812;4.622;2023-07-08T04:31:31;11.52;;;4.55;;
48241;SDS011;34041;51.812;4.622;2023-07-08T04:34:31;7.07;;;3.63;;
48241;SDS011;34041;51.812;4.622;2023-07-08T04:37:31;5.50;;;4.00;;
48241;SDS011;34041;51.812;4.622;2023-07-08T04:40:32;4.57;;;3.50;;
48241;SDS011;34041;51.812;4.622;2023-07-08T04:43:32;5.63;;;3.53;;
48241;SDS011;34041;51.812;4.622;2023-07-08T04:46:36;6.43;;;3.20;;
48241;SDS011;34041;51.812;4.622;2023-07-08T04:49:38;5.28;;;3.22;;
48241;SDS011;34041;51.812;4.622;2023-07-08T04:52:40;4.40;;;2.72;;
48241;SDS011;34041;51.812;4.622;2023-07-08T04:55:42;5.68;;;3.65;;
48241;SDS011;34041;51.812;4.622;2023-07-08T04:58:43;4.80;;;3.50;;
48241;SDS011;34041;51.812;4.622;2023-07-08T05:01:43;4.95;;;3.15;;
48241;SDS011;34041;51.812;4.622;2023-07-08T05:04:44;4.10;;;3.13;;
48241;SDS011;34041;51.812;4.622;2023-07-08T05:07:44;4.90;;;3.60;;
48241;SDS011;34041;51.812;4.622;2023-07-08T05:10:44;5.80;;;3.00;;
48241;SDS011;34041;51.812;4.622;2023-07-08T05:13:44;6.50;;;3.83;;
48241;SDS011;34041;51.812;4.622;2023-07-08T05:16:44;6.63;;;3.00;;
48241;SDS011;34041;51.812;4.622;2023-07-08T05:19:45;4.43;;;3.17;;
48241;SDS011;34041;51.812;4.622;2023-07-08T05:22:46;5.32;;;3.33;;
48241;SDS011;34041;51.812;4.622;2023-07-08T05:25:46;4.40;;;3.20;;
48241;SDS011;34041;51.812;4.622;2023-07-08T05:28:47;5.55;;;4.15;;
48241;SDS011;34041;51.812;4.622;2023-07-08T05:31:47;3.60;;;2.93;;
48241;SDS011;34041;51.812;4.622;2023-07-08T05:34:47;6.73;;;3.07;;
48241;SDS011;34041;51.812;4.622;2023-07-08T05:37:47;8.53;;;3.03;;
48241;SDS011;34041;51.812;4.622;2023-07-08T05:40:48;5.77;;;3.30;;
48241;SDS011;34041;51.812;4.622;2023-07-08T05:43:49;6.30;;;3.35;;
48241;SDS011;34041;51.812;4.622;2023-07-08T05:46:49;6.13;;;2.70;;
48241;SDS011;34041;51.812;4.622;2023-07-08T05:49:50;4.32;;;2.92;;
48241;SDS011;34041;51.812;4.622;2023-07-08T05:52:50;5.53;;;3.28;;
48241;SDS011;34041;51.812;4.622;2023-07-08T05:55:50;6.90;;;3.17;;
48241;SDS011;34041;51.812;4.622;2023-07-08T05:58:51;5.10;;;2.80;;
48241;SDS011;34041;51.812;4.622;2023-07-08T06:01:51;7.17;;;3.27;;
48241;SDS011;34041;51.812;4.622;2023-07-08T06:04:51;7.00;;;3.23;;
48241;SDS011;34041;51.812;4.622;2023-07-08T06:07:51;6.07;;;3.47;;
48241;SDS011;34041;51.812;4.622;2023-07-08T06:10:51;5.50;;;3.07;;
48241;SDS011;34041;51.812;4.622;2023-07-08T06:13:52;5.18;;;3.30;;
48241;SDS011;34041;51.812;4.622;2023-07-08T06:16:52;5.53;;;3.17;;
48241;SDS011;34041;51.812;4.622;2023-07-08T06:19:52;7.30;;;3.42;;
48241;SDS011;34041;51.812;4.622;2023-07-08T06:22:52;8.00;;;3.57;;
48241;SDS011;34041;51.812;4.622;2023-07-08T06:25:53;4.80;;;3.33;;
48241;SDS011;34041;51.812;4.622;2023-07-08T06:28:53;8.65;;;3.47;;
48241;SDS011;34041;51.812;4.622;2023-07-08T06:31:54;7.47;;;4.33;;
48241;SDS011;34041;51.812;4.622;2023-07-08T06:34:54;4.70;;;3.50;;
48241;SDS011;34041;51.812;4.622;2023-07-08T06:37:54;7.13;;;3.87;;
48241;SDS011;34041;51.812;4.622;2023-07-08T06:40:54;4.10;;;2.80;;
48241;SDS011;34041;51.812;4.622;2023-07-08T06:43:54;4.78;;;2.78;;
48241;SDS011;34041;51.812;4.622;2023-07-08T06:46:55;6.40;;;3.08;;
48241;SDS011;34041;51.812;4.622;2023-07-08T06:49:55;5.33;;;2.63;;
48241;SDS011;34041;51.812;4.622;2023-07-08T06:52:55;4.30;;;2.80;;
48241;SDS011;34041;51.812;4.622;2023-07-08T06:55:55;5.27;;;3.20;;
48241;SDS011;34041;51.812;4.622;2023-07-08T06:58:56;5.05;;;3.38;;
48241;SDS011;34041;51.812;4.622;2023-07-08T07:01:56;4.68;;;2.75;;
48241;SDS011;34041;51.812;4.622;2023-07-08T07:04:56;4.33;;;3.37;;
48241;SDS011;34041;51.812;4.622;2023-07-08T07:07:57;5.10;;;2.90;;
48241;SDS011;34041;51.812;4.622;2023-07-08T07:10:57;4.80;;;3.05;;
48241;SDS011;34041;51.812;4.622;2023-07-08T07:13:57;4.53;;;3.10;;
48241;SDS011;34041;51.812;4.622;2023-07-08T07:16:58;4.90;;;2.53;;
48241;SDS011;34041;51.812;4.622;2023-07-08T07:19:58;4.40;;;3.30;;
48241;SDS011;34041;51.812;4.622;2023-07-08T07:22:58;3.83;;;2.73;;
48241;SDS011;34041;51.812;4.622;2023-07-08T07:25:58;4.43;;;3.33;;
48241;SDS011;34041;51.812;4.622;2023-07-08T07:28:59;4.70;;;3.67;;
48241;SDS011;34041;51.812;4.622;2023-07-08T07:31:59;5.03;;;3.10;;
48241;SDS011;34041;51.812;4.622;2023-07-08T07:34:59;5.80;;;3.50;;
48241;SDS011;34041;51.812;4.622;2023-07-08T07:37:59;5.50;;;2.75;;
48241;SDS011;34041;51.812;4.622;2023-07-08T07:41:00;5.20;;;3.33;;
48241;SDS011;34041;51.812;4.622;2023-07-08T07:44:04;5.00;;;3.55;;
48241;SDS011;34041;51.812;4.622;2023-07-08T07:47:05;4.35;;;3.45;;
48241;SDS011;34041;51.812;4.622;2023-07-08T07:50:06;5.13;;;3.38;;
48241;SDS011;34041;51.812;4.622;2023-07-08T07:53:07;5.75;;;2.95;;
48241;SDS011;34041;51.812;4.622;2023-07-08T07:56:08;5.43;;;3.47;;
48241;SDS011;34041;51.812;4.622;2023-07-08T07:59:09;9.10;;;4.17;;
48241;SDS011;34041;51.812;4.622;2023-07-08T08:02:09;4.72;;;3.35;;
48241;SDS011;34041;51.812;4.622;2023-07-08T08:05:11;5.50;;;3.60;;
48241;SDS011;34041;51.812;4.622;2023-07-08T08:08:12;5.47;;;3.47;;
48241;SDS011;34041;51.812;4.622;2023-07-08T08:11:12;7.75;;;4.10;;
48241;SDS011;34041;51.812;4.622;2023-07-08T08:14:13;6.73;;;3.47;;
48241;SDS011;34041;51.812;4.622;2023-07-08T08:17:13;6.18;;;3.40;;
48241;SDS011;34041;51.812;4.622;2023-07-08T08:20:13;6.23;;;3.53;;
48241;SDS011;34041;51.812;4.622;2023-07-08T08:23:13;7.13;;;3.97;;
48241;SDS011;34041;51.812;4.622;2023-07-08T08:26:14;5.65;;;3.83;;
48241;SDS011;34041;51.812;4.622;2023-07-08T08:29:14;7.60;;;4.30;;
48241;SDS011;34041;51.812;4.622;2023-07-08T08:32:14;5.03;;;3.30;;
48241;SDS011;34041;51.812;4.622;2023-07-08T08:35:14;6.60;;;4.00;;
48241;SDS011;34041;51.812;4.622;2023-07-08T08:38:15;8.43;;;4.20;;
48241;SDS011;34041;51.812;4.622;2023-07-08T08:41:16;9.87;;;4.40;;
48241;SDS011;34041;51.812;4.622;2023-07-08T08:44:17;6.93;;;4.00;;
48241;SDS011;34041;51.812;4.622;2023-07-08T08:53:24;5.68;;;3.40;;
48241;SDS011;34041;51.812;4.622;2023-07-08T08:56:26;4.07;;;3.30;;
48241;SDS011;34041;51.812;4.622;2023-07-08T08:59:34;5.00;;;3.85;;
48241;SDS011;34041;51.812;4.622;2023-07-08T09:02:53;4.65;;;2.97;;
48241;SDS011;34041;51.812;4.622;2023-07-08T09:05:57;3.75;;;3.00;;
48241;SDS011;34041;51.812;4.622;2023-07-08T09:09:00;4.95;;;3.55;;
48241;SDS011;34041;51.812;4.622;2023-07-08T09:12:05;6.63;;;3.25;;
48241;SDS011;34041;51.812;4.622;2023-07-08T09:15:12;6.28;;;3.88;;
48241;SDS011;34041;51.812;4.622;2023-07-08T09:18:25;5.07;;;3.45;;
48241;SDS011;34041;51.812;4.622;2023-07-08T09:21:36;6.68;;;3.05;;
48241;SDS011;34041;51.812;4.622;2023-07-08T09:27:41;4.57;;;3.22;;
48241;SDS011;34041;51.812;4.622;2023-07-08T09:30:41;4.47;;;3.20;;
48241;SDS011;34041;51.812;4.622;2023-07-08T09:33:46;4.70;;;2.95;;
48241;SDS011;34041;51.812;4.622;2023-07-08T09:36:46;4.80;;;3.00;;
48241;SDS011;34041;51.812;4.622;2023-07-08T09:39:47;7.05;;;4.05;;
48241;SDS011;34041;51.812;4.622;2023-07-08T09:42:51;4.20;;;3.10;;
48241;SDS011;34041;51.812;4.622;2023-07-08T09:45:51;5.57;;;3.70;;
48241;SDS011;34041;51.812;4.622;2023-07-08T09:48:55;5.38;;;3.65;;
48241;SDS011;34041;51.812;4.622;2023-07-08T09:51:56;4.38;;;3.42;;
48241;SDS011;34041;51.812;4.622;2023-07-08T09:54:56;5.33;;;3.60;;
48241;SDS011;34041;51.812;4.622;2023-07-08T09:57:57;5.73;;;3.80;;
48241;SDS011;34041;51.812;4.622;2023-07-08T10:01:05;6.60;;;3.67;;
48241;SDS011;34041;51.812;4.622;2023-07-08T10:04:08;6.65;;;3.60;;
48241;SDS011;34041;51.812;4.622;2023-07-08T10:07:09;4.57;;;3.50;;
48241;SDS011;34041;51.812;4.622;2023-07-08T10:10:17;6.88;;;3.33;;
48241;SDS011;34041;51.812;4.622;2023-07-08T10:19:25;4.65;;;3.13;;
48241;SDS011;34041;51.812;4.622;2023-07-08T10:23:02;4.43;;;3.53;;
48241;SDS011;34041;51.812;4.622;2023-07-08T10:35:33;5.38;;;3.47;;
48241;SDS011;34041;51.812;4.622;2023-07-08T10:38:48;7.25;;;4.30;;
48241;SDS011;34041;51.812;4.622;2023-07-08T10:44:59;5.83;;;3.90;;
48241;SDS011;34041;51.812;4.622;2023-07-08T11:13:25;10.43;;;4.90;;
48241;SDS011;34041;51.812;4.622;2023-07-08T11:16:31;6.90;;;4.45;;
48241;SDS011;34041;51.812;4.622;2023-07-08T11:19:35;6.10;;;3.97;;
48241;SDS011;34041;51.812;4.622;2023-07-08T11:22:36;6.57;;;4.17;;
48241;SDS011;34041;51.812;4.622;2023-07-08T11:25:39;9.63;;;4.68;;
48241;SDS011;34041;51.812;4.622;2023-07-08T11:28:40;7.00;;;4.82;;
48241;SDS011;34041;51.812;4.622;2023-07-08T11:31:40;6.53;;;4.03;;
48241;SDS011;34041;51.812;4.622;2023-07-08T11:34:41;5.80;;;4.25;;
48241;SDS011;34041;51.812;4.622;2023-07-08T11:37:42;5.93;;;4.20;;
48241;SDS011;34041;51.812;4.622;2023-07-08T11:40:56;7.85;;;5.00;;
48241;SDS011;34041;51.812;4.622;2023-07-08T11:43:58;6.88;;;4.70;;
48241;SDS011;34041;51.812;4.622;2023-07-08T11:46:59;5.78;;;4.55;;
48241;SDS011;34041;51.812;4.622;2023-07-08T11:49:59;7.03;;;4.40;;
48241;SDS011;34041;51.812;4.622;2023-07-08T11:53:01;6.78;;;4.60;;
48241;SDS011;34041;51.812;4.622;2023-07-08T11:56:03;7.05;;;4.10;;
48241;SDS011;34041;51.812;4.622;2023-07-08T12:02:20;5.22;;;3.72;;
48241;SDS011;34041;51.812;4.622;2023-07-08T12:05:29;9.48;;;4.70;;
48241;SDS011;34041;51.812;4.622;2023-07-08T12:08:33;6.75;;;3.67;;
48241;SDS011;34041;51.812;4.622;2023-07-08T12:11:34;8.33;;;4.50;;
48241;SDS011;34041;51.812;4.622;2023-07-08T12:14:35;5.18;;;4.18;;
48241;SDS011;34041;51.812;4.622;2023-07-08T12:17:36;7.17;;;4.47;;
48241;SDS011;34041;51.812;4.622;2023-07-08T12:20:37;7.75;;;4.47;;
48241;SDS011;34041;51.812;4.622;2023-07-08T12:23:43;6.53;;;4.65;;
48241;SDS011;34041;51.812;4.622;2023-07-08T12:26:44;5.65;;;4.05;;
48241;SDS011;34041;51.812;4.622;2023-07-08T12:29:44;7.45;;;4.22;;
48241;SDS011;34041;51.812;4.622;2023-07-08T12:32:44;6.63;;;4.30;;
48241;SDS011;34041;51.812;4.622;2023-07-08T12:35:46;7.22;;;4.40;;
48241;SDS011;34041;51.812;4.622;2023-07-08T12:38:46;6.10;;;3.88;;
48241;SDS011;34041;51.812;4.622;2023-07-08T12:41:48;6.50;;;4.38;;
48241;SDS011;34041;51.812;4.622;2023-07-08T12:44:49;6.05;;;4.55;;
48241;SDS011;34041;51.812;4.622;2023-07-08T17:36:17;6.22;;;4.57;;
48241;SDS011;34041;51.812;4.622;2023-07-08T17:39:18;6.70;;;4.85;;
48241;SDS011;34041;51.812;4.622;2023-07-08T17:42:18;8.85;;;4.30;;
48241;SDS011;34041;51.812;4.622;2023-07-08T17:45:29;5.70;;;4.05;;
48241;SDS011;34041;51.812;4.622;2023-07-08T17:48:32;8.25;;;5.05;;
48241;SDS011;34041;51.812;4.622;2023-07-08T17:51:32;6.88;;;4.88;;
48241;SDS011;34041;51.812;4.622;2023-07-08T17:54:34;5.28;;;4.03;;
48241;SDS011;34041;51.812;4.622;2023-07-08T17:57:36;6.28;;;4.88;;
48241;SDS011;34041;51.812;4.622;2023-07-08T18:00:36;8.15;;;4.78;;
48241;SDS011;34041;51.812;4.622;2023-07-08T18:03:36;6.80;;;4.80;;
48241;SDS011;34041;51.812;4.622;2023-07-08T18:06:37;5.90;;;4.57;;
48241;SDS011;34041;51.812;4.622;2023-07-08T18:09:37;6.10;;;4.60;;
48241;SDS011;34041;51.812;4.622;2023-07-08T18:12:37;7.10;;;5.63;;
48241;SDS011;34041;51.812;4.622;2023-07-08T18:15:38;7.18;;;4.78;;
48241;SDS011;34041;51.812;4.622;2023-07-08T18:18:39;6.57;;;4.30;;
48241;SDS011;34041;51.812;4.622;2023-07-08T18:21:39;5.88;;;4.60;;
48241;SDS011;34041;51.812;4.622;2023-07-08T18:24:39;7.03;;;5.13;;
48241;SDS011;34041;51.812;4.622;2023-07-08T18:27:40;5.70;;;4.43;;
48241;SDS011;34041;51.812;4.622;2023-07-08T18:30:41;6.43;;;4.38;;
48241;SDS011;34041;51.812;4.622;2023-07-08T18:33:42;6.05;;;4.40;;
48241;SDS011;34041;51.812;4.622;2023-07-08T18:36:42;6.25;;;4.03;;
48241;SDS011;34041;51.812;4.622;2023-07-08T18:39:43;6.18;;;4.32;;
48241;SDS011;34041;51.812;4.622;2023-07-08T18:42:46;6.60;;;4.60;;
48241;SDS011;34041;51.812;4.622;2023-07-08T18:45:47;8.07;;;5.27;;
48241;SDS011;34041;51.812;4.622;2023-07-08T18:48:48;7.10;;;4.45;;
48241;SDS011;34041;51.812;4.622;2023-07-08T18:51:48;6.73;;;5.27;;
48241;SDS011;34041;51.812;4.622;2023-07-08T18:54:49;6.95;;;5.10;;
48241;SDS011;34041;51.812;4.622;2023-07-08T18:57:49;5.90;;;4.53;;
48241;SDS011;34041;51.812;4.622;2023-07-08T19:00:49;7.25;;;4.53;;
48241;SDS011;34041;51.812;4.622;2023-07-08T19:03:50;7.25;;;5.10;;
48241;SDS011;34041;51.812;4.622;2023-07-08T19:06:52;7.40;;;4.65;;
48241;SDS011;34041;51.812;4.622;2023-07-08T19:09:52;8.40;;;4.35;;
48241;SDS011;34041;51.812;4.622;2023-07-08T19:12:52;4.93;;;4.07;;
48241;SDS011;34041;51.812;4.622;2023-07-08T19:15:53;7.00;;;4.88;;
48241;SDS011;34041;51.812;4.622;2023-07-08T19:18:54;6.57;;;4.40;;
48241;SDS011;34041;51.812;4.622;2023-07-08T19:21:55;6.05;;;4.38;;
48241;SDS011;34041;51.812;4.622;2023-07-08T19:24:56;9.85;;;4.70;;
48241;SDS011;34041;51.812;4.622;2023-07-08T19:27:56;6.70;;;4.93;;
48241;SDS011;34041;51.812;4.622;2023-07-08T19:30:57;6.57;;;4.60;;
48241;SDS011;34041;51.812;4.622;2023-07-08T19:33:57;7.15;;;4.82;;
48241;SDS011;34041;51.812;4.622;2023-07-08T19:36:58;7.78;;;5.00;;
48241;SDS011;34041;51.812;4.622;2023-07-08T19:39:58;6.17;;;5.10;;
48241;SDS011;34041;51.812;4.622;2023-07-08T19:42:58;6.20;;;4.40;;
48241;SDS011;34041;51.812;4.622;2023-07-08T19:45:59;7.15;;;4.60;;
48241;SDS011;34041;51.812;4.622;2023-07-08T19:49:00;7.30;;;4.68;;
48241;SDS011;34041;51.812;4.622;2023-07-08T19:52:00;5.50;;;4.23;;
48241;SDS011;34041;51.812;4.622;2023-07-08T19:55:01;6.80;;;4.50;;
48241;SDS011;34041;51.812;4.622;2023-07-08T19:58:01;7.05;;;4.68;;
48241;SDS011;34041;51.812;4.622;2023-07-08T20:01:02;5.13;;;4.57;;
48241;SDS011;34041;51.812;4.622;2023-07-08T20:04:02;5.30;;;4.23;;
48241;SDS011;34041;51.812;4.622;2023-07-08T20:07:02;7.25;;;5.45;;
48241;SDS011;34041;51.812;4.622;2023-07-08T20:10:02;6.22;;;4.43;;
48241;SDS011;34041;51.812;4.622;2023-07-08T20:13:04;7.15;;;4.50;;
48241;SDS011;34041;51.812;4.622;2023-07-08T20:16:16;6.03;;;4.30;;
48241;SDS011;34041;51.812;4.622;2023-07-08T20:19:22;5.78;;;3.80;;
48241;SDS011;34041;51.812;4.622;2023-07-08T20:22:27;5.55;;;3.90;;
48241;SDS011;34041;51.812;4.622;2023-07-08T20:25:29;5.30;;;4.18;;
48241;SDS011;34041;51.812;4.622;2023-07-08T20:28:30;5.50;;;4.57;;
48241;SDS011;34041;51.812;4.622;2023-07-08T20:31:31;6.93;;;4.93;;
48241;SDS011;34041;51.812;4.622;2023-07-08T20:34:31;7.75;;;5.35;;
48241;SDS011;34041;51.812;4.622;2023-07-08T20:37:32;8.90;;;4.53;;
48241;SDS011;34041;51.812;4.622;2023-07-08T20:40:32;8.13;;;4.90;;
48241;SDS011;34041;51.812;4.622;2023-07-08T20:43:34;9.65;;;4.95;;
48241;SDS011;34041;51.812;4.622;2023-07-08T20:46:34;7.63;;;5.20;;
48241;SDS011;34041;51.812;4.622;2023-07-08T20:49:35;9.23;;;5.85;;
48241;SDS011;34041;51.812;4.622;2023-07-08T20:52:35;8.80;;;4.65;;
48241;SDS011;34041;51.812;4.622;2023-07-08T20:55:36;10.98;;;5.75;;
48241;SDS011;34041;51.812;4.622;2023-07-08T20:58:37;6.27;;;4.30;;
48241;SDS011;34041;51.812;4.622;2023-07-08T21:01:37;8.70;;;5.67;;
48241;SDS011;34041;51.812;4.622;2023-07-08T21:04:37;6.40;;;4.97;;
48241;SDS011;34041;51.812;4.622;2023-07-08T21:07:37;7.60;;;5.13;;
48241;SDS011;34041;51.812;4.622;2023-07-08T21:10:38;9.80;;;5.35;;
48241;SDS011;34041;51.812;4.622;2023-07-08T21:13:38;7.20;;;5.07;;
48241;SDS011;34041;51.812;4.622;2023-07-08T21:16:38;8.70;;;5.73;;
48241;SDS011;34041;51.812;4.622;2023-07-08T21:19:38;6.17;;;4.70;;
48241;SDS011;34041;51.812;4.622;2023-07-08T21:22:39;7.93;;;4.50;;
48241;SDS011;34041;51.812;4.622;2023-07-08T21:25:39;7.20;;;4.87;;
48241;SDS011;34041;51.812;4.622;2023-07-08T21:28:39;6.30;;;4.28;;
48241;SDS011;34041;51.812;4.622;2023-07-08T21:31:40;6.53;;;4.70;;
48241;SDS011;34041;51.812;4.622;2023-07-08T21:34:40;7.47;;;5.13;;
48241;SDS011;34041;51.812;4.622;2023-07-08T21:37:47;9.10;;;5.30;;
48241;SDS011;34041;51.812;4.622;2023-07-08T21:40:49;8.18;;;4.80;;
48241;SDS011;34041;51.812;4.622;2023-07-08T21:43:50;6.25;;;4.15;;
48241;SDS011;34041;51.812;4.622;2023-07-08T21:46:50;5.97;;;4.13;;
48241;SDS011;34041;51.812;4.622;2023-07-08T21:49:51;8.60;;;5.13;;
48241;SDS011;34041;51.812;4.622;2023-07-08T21:52:51;8.60;;;4.50;;
48241;SDS011;34041;51.812;4.622;2023-07-08T21:55:53;8.07;;;4.95;;
48241;SDS011;34041;51.812;4.622;2023-07-08T21:58:53;7.20;;;4.45;;
48241;SDS011;34041;51.812;4.622;2023-07-08T22:01:54;8.38;;;5.45;;
48241;SDS011;34041;51.812;4.622;2023-07-08T22:04:54;9.65;;;4.95;;
48241;SDS011;34041;51.812;4.622;2023-07-08T22:07:54;10.17;;;5.40;;
48241;SDS011;34041;51.812;4.622;2023-07-08T22:10:56;7.37;;;5.00;;
48241;SDS011;34041;51.812;4.622;2023-07-08T22:13:57;8.98;;;5.50;;
48241;SDS011;34041;51.812;4.622;2023-07-08T22:16:58;7.55;;;4.38;;
48241;SDS011;34041;51.812;4.622;2023-07-08T22:19:58;9.23;;;4.88;;
48241;SDS011;34041;51.812;4.622;2023-07-08T22:22:58;8.73;;;4.77;;
48241;SDS011;34041;51.812;4.622;2023-07-08T22:25:59;7.57;;;5.13;;
48241;SDS011;34041;51.812;4.622;2023-07-08T22:28:59;11.32;;;5.18;;
48241;SDS011;34041;51.812;4.622;2023-07-08T22:31:59;7.37;;;5.40;;
48241;SDS011;34041;51.812;4.622;2023-07-08T22:35:00;8.47;;;5.03;;
48241;SDS011;34041;51.812;4.622;2023-07-08T22:38:00;6.67;;;5.17;;
48241;SDS011;34041;51.812;4.622;2023-07-08T22:41:00;9.40;;;4.97;;
48241;SDS011;34041;51.812;4.622;2023-07-08T22:44:00;6.93;;;4.50;;
48241;SDS011;34041;51.812;4.622;2023-07-08T22:47:01;8.90;;;5.00;;
48241;SDS011;34041;51.812;4.622;2023-07-08T22:50:08;7.43;;;4.55;;
48241;SDS011;34041;51.812;4.622;2023-07-08T22:53:09;8.00;;;4.40;;
48241;SDS011;34041;51.812;4.622;2023-07-08T22:56:15;10.48;;;5.18;;
48241;SDS011;34041;51.812;4.622;2023-07-08T22:59:16;11.43;;;5.88;;
48241;SDS011;34041;51.812;4.622;2023-07-08T23:02:16;13.87;;;7.53;;
48241;SDS011;34041;51.812;4.622;2023-07-08T23:05:18;10.80;;;6.40;;
48241;SDS011;34041;51.812;4.622;2023-07-08T23:08:37;9.48;;;6.93;;
48241;SDS011;34041;51.812;4.622;2023-07-08T23:11:37;9.48;;;5.97;;
48241;SDS011;34041;51.812;4.622;2023-07-08T23:14:37;9.23;;;6.60;;
48241;SDS011;34041;51.812;4.622;2023-07-08T23:17:41;12.73;;;6.65;;
48241;SDS011;34041;51.812;4.622;2023-07-08T23:23:42;10.35;;;6.40;;
48241;SDS011;34041;51.812;4.622;2023-07-08T23:26:43;11.13;;;6.80;;
48241;SDS011;34041;51.812;4.622;2023-07-08T23:29:44;11.32;;;7.65;;
48241;SDS011;34041;51.812;4.622;2023-07-08T23:32:45;12.90;;;6.95;;
48241;SDS011;34041;51.812;4.622;2023-07-08T23:35:45;12.02;;;6.82;;
48241;SDS011;34041;51.812;4.622;2023-07-08T23:38:45;11.23;;;6.88;;
48241;SDS011;34041;51.812;4.622;2023-07-08T23:41:46;8.87;;;6.37;;
48241;SDS011;34041;51.812;4.622;2023-07-08T23:44:47;11.68;;;6.40;;
48241;SDS011;34041;51.812;4.622;2023-07-08T23:47:47;13.10;;;6.87;;
48241;SDS011;34041;51.812;4.622;2023-07-08T23:50:47;14.23;;;7.20;;
48241;SDS011;34041;51.812;4.622;2023-07-08T23:53:47;14.77;;;7.57;;
48241;SDS011;34041;51.812;4.622;2023-07-08T23:56:48;9.73;;;6.85;;
